sensor_id;sensor_type;location;lat;lon;timestamp;pressure;altitude;pressure_sealevel;temperature;humidity
80568;BME280;69922;45.656;25.586;2024-01-15T00:00:11;94346.34;;;-3.96;70.08
80568;BME280;69922;45.656;25.586;2024-01-15T00:01:22;94346.41;;;-3.98;69.98
80568;BME280;69922;45.656;25.586;2024-01-15T00:02:29;94348.47;;;-4.00;69.86
80568;BME280;69922;45.656;25.586;2024-01-15T00:03:35;94344.42;;;-4.01;70.12
80568;BME280;69922;45.656;25.586;2024-01-15T00:04:42;94343.30;;;-4.01;70.13
80568;BME280;69922;45.656;25.586;2024-01-15T00:05:49;94344.51;;;-4.03;70.08
80568;BME280;69922;45.656;25.586;2024-01-15T00:06:55;94351.09;;;-4.06;69.85
80568;BME280;69922;45.656;25.586;2024-01-15T00:08:03;94351.98;;;-4.08;69.82
80568;BME280;69922;45.656;25.586;2024-01-15T00:09:09;94352.70;;;-4.12;69.86
80568;BME280;69922;45.656;25.586;2024-01-15T00:10:16;94350.14;;;-4.16;69.85
80568;BME280;69922;45.656;25.586;2024-01-15T00:11:23;94353.00;;;-4.19;70.03
80568;BME280;69922;45.656;25.586;2024-01-15T00:12:29;94353.52;;;-4.21;70.27
80568;BME280;69922;45.656;25.586;2024-01-15T00:13:36;94356.80;;;-4.23;70.37
80568;BME280;69922;45.656;25.586;2024-01-15T00:14:43;94353.05;;;-4.25;70.28
80568;BME280;69922;45.656;25.586;2024-01-15T00:15:49;94355.15;;;-4.27;70.54
80568;BME280;69922;45.656;25.586;2024-01-15T00:16:56;94357.77;;;-4.27;70.51
80568;BME280;69922;45.656;25.586;2024-01-15T00:18:03;94362.12;;;-4.29;70.31
80568;BME280;69922;45.656;25.586;2024-01-15T00:19:09;94356.36;;;-4.31;70.37
80568;BME280;69922;45.656;25.586;2024-01-15T00:20:16;94357.93;;;-4.32;70.48
80568;BME280;69922;45.656;25.586;2024-01-15T00:21:23;94361.45;;;-4.32;70.84
80568;BME280;69922;45.656;25.586;2024-01-15T00:22:30;94360.16;;;-4.33;70.91
80568;BME280;69922;45.656;25.586;2024-01-15T00:23:37;94358.65;;;-4.35;70.79
80568;BME280;69922;45.656;25.586;2024-01-15T00:24:43;94354.27;;;-4.36;70.83
80568;BME280;69922;45.656;25.586;2024-01-15T00:25:50;94356.06;;;-4.38;71.03
80568;BME280;69922;45.656;25.586;2024-01-15T00:26:57;94353.92;;;-4.39;71.04
80568;BME280;69922;45.656;25.586;2024-01-15T00:28:06;94347.99;;;-4.40;71.12
80568;BME280;69922;45.656;25.586;2024-01-15T00:29:12;94351.56;;;-4.40;71.33
80568;BME280;69922;45.656;25.586;2024-01-15T00:30:19;94354.48;;;-4.42;71.25
80568;BME280;69922;45.656;25.586;2024-01-15T00:31:25;94355.89;;;-4.44;71.08
80568;BME280;69922;45.656;25.586;2024-01-15T00:32:33;94358.10;;;-4.47;71.24
80568;BME280;69922;45.656;25.586;2024-01-15T00:33:39;94359.84;;;-4.48;71.30
80568;BME280;69922;45.656;25.586;2024-01-15T00:34:46;94364.83;;;-4.51;71.35
80568;BME280;69922;45.656;25.586;2024-01-15T00:35:53;94359.00;;;-4.53;71.55
80568;BME280;69922;45.656;25.586;2024-01-15T00:36:59;94358.21;;;-4.56;71.45
80568;BME280;69922;45.656;25.586;2024-01-15T00:38:06;94361.13;;;-4.58;71.59
80568;BME280;69922;45.656;25.586;2024-01-15T00:39:13;94360.89;;;-4.60;71.49
80568;BME280;69922;45.656;25.586;2024-01-15T00:40:20;94360.27;;;-4.63;71.39
80568;BME280;69922;45.656;25.586;2024-01-15T00:41:26;94363.77;;;-4.65;71.55
80568;BME280;69922;45.656;25.586;2024-01-15T00:42:34;94356.77;;;-4.68;71.77
80568;BME280;69922;45.656;25.586;2024-01-15T00:43:41;94362.39;;;-4.69;71.88
80568;BME280;69922;45.656;25.586;2024-01-15T00:44:48;94360.66;;;-4.71;71.85
80568;BME280;69922;45.656;25.586;2024-01-15T00:45:54;94361.19;;;-4.72;72.07
80568;BME280;69922;45.656;25.586;2024-01-15T00:47:01;94359.73;;;-4.74;72.16
80568;BME280;69922;45.656;25.586;2024-01-15T00:48:08;94358.84;;;-4.76;71.93
80568;BME280;69922;45.656;25.586;2024-01-15T00:49:15;94355.41;;;-4.79;71.94
80568;BME280;69922;45.656;25.586;2024-01-15T00:50:22;94357.74;;;-4.80;72.08
80568;BME280;69922;45.656;25.586;2024-01-15T00:51:28;94356.02;;;-4.82;72.14
80568;BME280;69922;45.656;25.586;2024-01-15T00:52:35;94352.27;;;-4.83;72.21
80568;BME280;69922;45.656;25.586;2024-01-15T00:53:41;94342.59;;;-4.85;72.16
80568;BME280;69922;45.656;25.586;2024-01-15T00:54:48;94341.46;;;-4.87;72.35
80568;BME280;69922;45.656;25.586;2024-01-15T00:55:54;94341.50;;;-4.88;72.43
80568;BME280;69922;45.656;25.586;2024-01-15T00:57:01;94341.96;;;-4.90;72.50
80568;BME280;69922;45.656;25.586;2024-01-15T00:58:07;94343.59;;;-4.91;72.50
80568;BME280;69922;45.656;25.586;2024-01-15T00:59:14;94337.02;;;-4.93;72.58
80568;BME280;69922;45.656;25.586;2024-01-15T01:00:21;94335.20;;;-4.95;72.68
80568;BME280;69922;45.656;25.586;2024-01-15T01:01:28;94337.65;;;-4.94;72.95
80568;BME280;69922;45.656;25.586;2024-01-15T01:02:35;94343.27;;;-4.92;72.98
80568;BME280;69922;45.656;25.586;2024-01-15T01:03:41;94344.23;;;-4.92;72.76
80568;BME280;69922;45.656;25.586;2024-01-15T01:04:49;94348.08;;;-4.91;72.88
80568;BME280;69922;45.656;25.586;2024-01-15T01:05:55;94344.27;;;-4.92;72.90
80568;BME280;69922;45.656;25.586;2024-01-15T01:07:02;94344.42;;;-4.93;72.98
80568;BME280;69922;45.656;25.586;2024-01-15T01:08:08;94343.00;;;-4.93;72.59
80568;BME280;69922;45.656;25.586;2024-01-15T01:09:14;94339.61;;;-4.94;72.81
80568;BME280;69922;45.656;25.586;2024-01-15T01:10:21;94338.07;;;-4.94;72.92
80568;BME280;69922;45.656;25.586;2024-01-15T01:11:28;94338.44;;;-4.94;73.15
80568;BME280;69922;45.656;25.586;2024-01-15T01:12:34;94333.29;;;-4.94;73.22
80568;BME280;69922;45.656;25.586;2024-01-15T01:13:41;94330.63;;;-4.93;73.23
80568;BME280;69922;45.656;25.586;2024-01-15T01:14:47;94330.95;;;-4.93;73.09
80568;BME280;69922;45.656;25.586;2024-01-15T01:15:54;94331.59;;;-4.93;73.10
80568;BME280;69922;45.656;25.586;2024-01-15T01:17:01;94330.31;;;-4.92;73.38
80568;BME280;69922;45.656;25.586;2024-01-15T01:18:08;94329.50;;;-4.89;73.48
80568;BME280;69922;45.656;25.586;2024-01-15T01:19:14;94331.48;;;-4.89;73.15
80568;BME280;69922;45.656;25.586;2024-01-15T01:20:21;94328.98;;;-4.88;72.88
80568;BME280;69922;45.656;25.586;2024-01-15T01:21:28;94326.30;;;-4.88;73.13
80568;BME280;69922;45.656;25.586;2024-01-15T01:22:35;94324.61;;;-4.88;73.21
80568;BME280;69922;45.656;25.586;2024-01-15T01:23:41;94323.70;;;-4.89;72.90
80568;BME280;69922;45.656;25.586;2024-01-15T01:24:48;94324.81;;;-4.90;72.78
80568;BME280;69922;45.656;25.586;2024-01-15T01:25:54;94320.80;;;-4.91;73.01
80568;BME280;69922;45.656;25.586;2024-01-15T01:27:01;94322.29;;;-4.92;73.00
80568;BME280;69922;45.656;25.586;2024-01-15T01:28:07;94323.29;;;-4.92;72.99
80568;BME280;69922;45.656;25.586;2024-01-15T01:29:14;94320.58;;;-4.92;72.99
80568;BME280;69922;45.656;25.586;2024-01-15T01:30:20;94318.48;;;-4.93;73.13
80568;BME280;69922;45.656;25.586;2024-01-15T01:31:28;94311.47;;;-4.93;73.20
80568;BME280;69922;45.656;25.586;2024-01-15T01:32:35;94311.01;;;-4.95;72.99
80568;BME280;69922;45.656;25.586;2024-01-15T01:33:42;94309.36;;;-4.96;73.07
80568;BME280;69922;45.656;25.586;2024-01-15T01:34:49;94307.90;;;-4.96;72.96
80568;BME280;69922;45.656;25.586;2024-01-15T01:35:55;94307.41;;;-4.97;73.09
80568;BME280;69922;45.656;25.586;2024-01-15T01:37:02;94299.85;;;-4.99;73.05
80568;BME280;69922;45.656;25.586;2024-01-15T01:38:09;94299.09;;;-4.99;73.06
80568;BME280;69922;45.656;25.586;2024-01-15T01:39:15;94300.16;;;-4.99;73.20
80568;BME280;69922;45.656;25.586;2024-01-15T01:40:23;94302.62;;;-4.97;73.28
80568;BME280;69922;45.656;25.586;2024-01-15T01:41:29;94295.60;;;-4.96;73.39
80568;BME280;69922;45.656;25.586;2024-01-15T01:42:35;94298.28;;;-4.95;73.19
80568;BME280;69922;45.656;25.586;2024-01-15T01:43:43;94298.83;;;-4.94;73.23
80568;BME280;69922;45.656;25.586;2024-01-15T01:44:49;94299.48;;;-4.94;73.12
80568;BME280;69922;45.656;25.586;2024-01-15T01:45:57;94303.37;;;-4.93;73.29
80568;BME280;69922;45.656;25.586;2024-01-15T01:47:07;94305.23;;;-4.93;73.22
80568;BME280;69922;45.656;25.586;2024-01-15T01:48:15;94303.38;;;-4.92;73.18
80568;BME280;69922;45.656;25.586;2024-01-15T01:49:22;94299.21;;;-4.93;73.12
80568;BME280;69922;45.656;25.586;2024-01-15T01:50:30;94293.95;;;-4.93;73.10
80568;BME280;69922;45.656;25.586;2024-01-15T01:51:39;94297.19;;;-4.94;73.14
80568;BME280;69922;45.656;25.586;2024-01-15T01:52:46;94294.40;;;-4.95;73.09
80568;BME280;69922;45.656;25.586;2024-01-15T01:53:53;94296.95;;;-4.95;73.28
80568;BME280;69922;45.656;25.586;2024-01-15T01:55:01;94292.25;;;-4.96;73.28
80568;BME280;69922;45.656;25.586;2024-01-15T01:56:08;94291.46;;;-4.96;73.27
80568;BME280;69922;45.656;25.586;2024-01-15T01:57:17;94294.54;;;-4.96;73.36
80568;BME280;69922;45.656;25.586;2024-01-15T01:58:24;94292.58;;;-4.96;73.44
80568;BME280;69922;45.656;25.586;2024-01-15T01:59:32;94290.13;;;-4.96;73.31
80568;BME280;69922;45.656;25.586;2024-01-15T02:00:40;94291.67;;;-4.96;73.16
80568;BME280;69922;45.656;25.586;2024-01-15T02:01:47;94284.59;;;-4.96;73.14
80568;BME280;69922;45.656;25.586;2024-01-15T02:02:55;94284.77;;;-4.95;73.20
80568;BME280;69922;45.656;25.586;2024-01-15T02:04:02;94292.98;;;-4.94;73.22
80568;BME280;69922;45.656;25.586;2024-01-15T02:05:11;94291.11;;;-4.93;73.21
80568;BME280;69922;45.656;25.586;2024-01-15T02:06:19;94290.84;;;-4.94;73.50
80568;BME280;69922;45.656;25.586;2024-01-15T02:07:27;94286.63;;;-4.94;73.39
80568;BME280;69922;45.656;25.586;2024-01-15T02:08:35;94296.05;;;-4.95;73.54
80568;BME280;69922;45.656;25.586;2024-01-15T02:09:42;94298.70;;;-4.93;73.58
80568;BME280;69922;45.656;25.586;2024-01-15T02:10:48;94290.43;;;-4.94;73.29
80568;BME280;69922;45.656;25.586;2024-01-15T02:11:55;94290.67;;;-4.94;73.17
80568;BME280;69922;45.656;25.586;2024-01-15T02:13:02;94285.20;;;-4.94;73.14
80568;BME280;69922;45.656;25.586;2024-01-15T02:14:08;94284.48;;;-4.95;72.98
80568;BME280;69922;45.656;25.586;2024-01-15T02:15:16;94286.66;;;-4.97;73.00
80568;BME280;69922;45.656;25.586;2024-01-15T02:16:23;94280.46;;;-4.99;72.88
80568;BME280;69922;45.656;25.586;2024-01-15T02:17:29;94281.08;;;-5.00;72.78
80568;BME280;69922;45.656;25.586;2024-01-15T02:18:42;94284.27;;;-5.01;72.77
80568;BME280;69922;45.656;25.586;2024-01-15T02:19:51;94284.95;;;-5.02;72.82
80568;BME280;69922;45.656;25.586;2024-01-15T02:20:57;94288.92;;;-5.03;72.94
80568;BME280;69922;45.656;25.586;2024-01-15T02:22:03;94281.59;;;-5.04;72.79
80568;BME280;69922;45.656;25.586;2024-01-15T02:23:14;94278.67;;;-5.03;72.79
80568;BME280;69922;45.656;25.586;2024-01-15T02:24:22;94277.81;;;-5.02;72.75
80568;BME280;69922;45.656;25.586;2024-01-15T02:25:29;94274.36;;;-5.01;72.69
80568;BME280;69922;45.656;25.586;2024-01-15T02:26:35;94273.50;;;-4.97;72.62
80568;BME280;69922;45.656;25.586;2024-01-15T02:27:44;94270.54;;;-4.96;72.71
80568;BME280;69922;45.656;25.586;2024-01-15T02:28:52;94268.61;;;-4.93;72.82
80568;BME280;69922;45.656;25.586;2024-01-15T02:29:59;94273.91;;;-4.89;72.82
80568;BME280;69922;45.656;25.586;2024-01-15T02:31:05;94269.52;;;-4.87;72.62
80568;BME280;69922;45.656;25.586;2024-01-15T02:32:11;94261.34;;;-4.84;72.66
80568;BME280;69922;45.656;25.586;2024-01-15T02:33:18;94261.96;;;-4.81;72.64
80568;BME280;69922;45.656;25.586;2024-01-15T02:34:25;94257.48;;;-4.80;72.51
80568;BME280;69922;45.656;25.586;2024-01-15T02:35:32;94257.04;;;-4.79;72.46
80568;BME280;69922;45.656;25.586;2024-01-15T02:36:39;94258.02;;;-4.76;72.50
80568;BME280;69922;45.656;25.586;2024-01-15T02:37:46;94253.72;;;-4.75;72.49
80568;BME280;69922;45.656;25.586;2024-01-15T02:38:53;94256.35;;;-4.72;72.54
80568;BME280;69922;45.656;25.586;2024-01-15T02:39:59;94248.64;;;-4.70;72.59
80568;BME280;69922;45.656;25.586;2024-01-15T02:41:06;94244.83;;;-4.67;72.33
80568;BME280;69922;45.656;25.586;2024-01-15T02:42:12;94243.10;;;-4.64;72.36
80568;BME280;69922;45.656;25.586;2024-01-15T02:43:19;94239.89;;;-4.61;72.48
80568;BME280;69922;45.656;25.586;2024-01-15T02:44:25;94239.27;;;-4.57;72.53
80568;BME280;69922;45.656;25.586;2024-01-15T02:45:32;94237.23;;;-4.54;72.46
80568;BME280;69922;45.656;25.586;2024-01-15T02:46:39;94234.01;;;-4.52;72.57
80568;BME280;69922;45.656;25.586;2024-01-15T02:47:45;94232.52;;;-4.50;72.31
80568;BME280;69922;45.656;25.586;2024-01-15T02:48:52;94230.63;;;-4.48;72.29
80568;BME280;69922;45.656;25.586;2024-01-15T02:49:59;94225.31;;;-4.46;72.14
80568;BME280;69922;45.656;25.586;2024-01-15T02:51:06;94224.05;;;-4.44;72.09
80568;BME280;69922;45.656;25.586;2024-01-15T02:52:13;94226.94;;;-4.43;72.26
80568;BME280;69922;45.656;25.586;2024-01-15T02:53:19;94223.11;;;-4.42;72.12
80568;BME280;69922;45.656;25.586;2024-01-15T02:54:26;94218.79;;;-4.42;72.07
80568;BME280;69922;45.656;25.586;2024-01-15T02:55:32;94218.80;;;-4.41;72.04
80568;BME280;69922;45.656;25.586;2024-01-15T02:56:39;94217.11;;;-4.38;72.37
80568;BME280;69922;45.656;25.586;2024-01-15T02:57:45;94220.92;;;-4.35;72.15
80568;BME280;69922;45.656;25.586;2024-01-15T02:58:52;94227.39;;;-4.32;72.23
80568;BME280;69922;45.656;25.586;2024-01-15T02:59:58;94226.99;;;-4.29;72.21
80568;BME280;69922;45.656;25.586;2024-01-15T03:01:05;94225.09;;;-4.26;71.96
80568;BME280;69922;45.656;25.586;2024-01-15T03:02:12;94220.81;;;-4.22;72.12
80568;BME280;69922;45.656;25.586;2024-01-15T03:03:19;94219.29;;;-4.19;71.88
80568;BME280;69922;45.656;25.586;2024-01-15T03:04:26;94224.59;;;-4.15;71.96
80568;BME280;69922;45.656;25.586;2024-01-15T03:05:33;94227.23;;;-4.13;72.09
80568;BME280;69922;45.656;25.586;2024-01-15T03:06:40;94227.92;;;-4.11;72.01
80568;BME280;69922;45.656;25.586;2024-01-15T03:07:46;94229.76;;;-4.08;72.18
80568;BME280;69922;45.656;25.586;2024-01-15T03:08:53;94223.90;;;-4.07;72.28
80568;BME280;69922;45.656;25.586;2024-01-15T03:09:59;94217.83;;;-4.06;72.01
80568;BME280;69922;45.656;25.586;2024-01-15T03:11:06;94211.75;;;-4.06;72.14
80568;BME280;69922;45.656;25.586;2024-01-15T03:12:13;94211.65;;;-4.05;71.78
80568;BME280;69922;45.656;25.586;2024-01-15T03:13:20;94212.41;;;-4.04;71.94
80568;BME280;69922;45.656;25.586;2024-01-15T03:14:27;94209.95;;;-4.05;71.86
80568;BME280;69922;45.656;25.586;2024-01-15T03:15:33;94204.71;;;-4.05;71.96
80568;BME280;69922;45.656;25.586;2024-01-15T03:16:39;94207.27;;;-4.07;72.02
80568;BME280;69922;45.656;25.586;2024-01-15T03:17:46;94210.46;;;-4.08;72.06
80568;BME280;69922;45.656;25.586;2024-01-15T03:18:53;94210.52;;;-4.08;71.84
80568;BME280;69922;45.656;25.586;2024-01-15T03:20:00;94209.23;;;-4.09;72.03
80568;BME280;69922;45.656;25.586;2024-01-15T03:21:08;94212.27;;;-4.08;71.88
80568;BME280;69922;45.656;25.586;2024-01-15T03:22:14;94217.45;;;-4.07;71.90
80568;BME280;69922;45.656;25.586;2024-01-15T03:23:21;94217.35;;;-4.06;71.87
80568;BME280;69922;45.656;25.586;2024-01-15T03:24:27;94219.70;;;-4.06;71.64
80568;BME280;69922;45.656;25.586;2024-01-15T03:25:34;94217.83;;;-4.06;71.80
80568;BME280;69922;45.656;25.586;2024-01-15T03:26:40;94215.70;;;-4.06;71.84
80568;BME280;69922;45.656;25.586;2024-01-15T03:27:47;94204.69;;;-4.08;71.94
80568;BME280;69922;45.656;25.586;2024-01-15T03:28:53;94198.70;;;-4.13;71.36
80568;BME280;69922;45.656;25.586;2024-01-15T03:30:00;94209.39;;;-4.17;71.47
80568;BME280;69922;45.656;25.586;2024-01-15T03:31:06;94201.36;;;-4.22;71.34
80568;BME280;69922;45.656;25.586;2024-01-15T03:32:13;94196.89;;;-4.27;71.49
80568;BME280;69922;45.656;25.586;2024-01-15T03:33:22;94204.73;;;-4.32;71.37
80568;BME280;69922;45.656;25.586;2024-01-15T03:34:28;94208.10;;;-4.39;71.40
80568;BME280;69922;45.656;25.586;2024-01-15T03:35:35;94210.41;;;-4.44;71.24
80568;BME280;69922;45.656;25.586;2024-01-15T03:36:42;94208.13;;;-4.48;71.73
80568;BME280;69922;45.656;25.586;2024-01-15T03:37:48;94206.92;;;-4.53;71.63
80568;BME280;69922;45.656;25.586;2024-01-15T03:38:55;94205.20;;;-4.55;71.67
80568;BME280;69922;45.656;25.586;2024-01-15T03:40:02;94195.84;;;-4.58;71.81
80568;BME280;69922;45.656;25.586;2024-01-15T03:41:09;94202.39;;;-4.58;71.68
80568;BME280;69922;45.656;25.586;2024-01-15T03:42:16;94203.59;;;-4.57;72.00
80568;BME280;69922;45.656;25.586;2024-01-15T03:43:22;94199.27;;;-4.56;72.09
80568;BME280;69922;45.656;25.586;2024-01-15T03:44:29;94191.88;;;-4.55;71.97
80568;BME280;69922;45.656;25.586;2024-01-15T03:45:36;94187.41;;;-4.54;71.68
80568;BME280;69922;45.656;25.586;2024-01-15T03:46:42;94194.30;;;-4.53;71.88
80568;BME280;69922;45.656;25.586;2024-01-15T03:47:49;94198.35;;;-4.51;71.84
80568;BME280;69922;45.656;25.586;2024-01-15T03:48:55;94197.57;;;-4.50;71.68
80568;BME280;69922;45.656;25.586;2024-01-15T03:50:02;94185.33;;;-4.49;71.80
80568;BME280;69922;45.656;25.586;2024-01-15T03:51:09;94185.27;;;-4.47;71.74
80568;BME280;69922;45.656;25.586;2024-01-15T03:52:16;94184.97;;;-4.46;71.69
80568;BME280;69922;45.656;25.586;2024-01-15T03:53:23;94185.32;;;-4.44;71.73
80568;BME280;69922;45.656;25.586;2024-01-15T03:54:30;94179.98;;;-4.43;71.78
80568;BME280;69922;45.656;25.586;2024-01-15T03:55:36;94175.14;;;-4.41;71.91
80568;BME280;69922;45.656;25.586;2024-01-15T03:56:43;94177.02;;;-4.40;71.65
80568;BME280;69922;45.656;25.586;2024-01-15T03:57:50;94177.45;;;-4.39;71.46
80568;BME280;69922;45.656;25.586;2024-01-15T03:58:56;94176.66;;;-4.38;71.64
80568;BME280;69922;45.656;25.586;2024-01-15T04:00:03;94171.66;;;-4.36;71.33
80568;BME280;69922;45.656;25.586;2024-01-15T04:01:11;94167.25;;;-4.36;71.34
80568;BME280;69922;45.656;25.586;2024-01-15T04:02:18;94164.64;;;-4.35;71.43
80568;BME280;69922;45.656;25.586;2024-01-15T04:03:25;94167.42;;;-4.35;71.27
80568;BME280;69922;45.656;25.586;2024-01-15T04:04:32;94163.85;;;-4.34;71.59
80568;BME280;69922;45.656;25.586;2024-01-15T04:05:39;94163.47;;;-4.35;71.44
80568;BME280;69922;45.656;25.586;2024-01-15T04:06:46;94160.73;;;-4.36;71.25
80568;BME280;69922;45.656;25.586;2024-01-15T04:07:53;94159.19;;;-4.37;71.44
80568;BME280;69922;45.656;25.586;2024-01-15T04:09:00;94152.36;;;-4.39;71.37
80568;BME280;69922;45.656;25.586;2024-01-15T04:10:07;94153.09;;;-4.40;71.42
80568;BME280;69922;45.656;25.586;2024-01-15T04:11:14;94148.81;;;-4.42;71.47
80568;BME280;69922;45.656;25.586;2024-01-15T04:12:21;94149.08;;;-4.44;71.47
80568;BME280;69922;45.656;25.586;2024-01-15T04:13:27;94150.44;;;-4.45;71.31
80568;BME280;69922;45.656;25.586;2024-01-15T04:14:33;94147.08;;;-4.47;71.19
80568;BME280;69922;45.656;25.586;2024-01-15T04:15:40;94147.27;;;-4.49;71.50
80568;BME280;69922;45.656;25.586;2024-01-15T04:16:47;94146.15;;;-4.50;71.31
80568;BME280;69922;45.656;25.586;2024-01-15T04:17:53;94136.23;;;-4.52;71.49
80568;BME280;69922;45.656;25.586;2024-01-15T04:19:00;94143.36;;;-4.52;71.71
80568;BME280;69922;45.656;25.586;2024-01-15T04:20:08;94152.58;;;-4.52;71.63
80568;BME280;69922;45.656;25.586;2024-01-15T04:21:16;94150.76;;;-4.53;71.53
80568;BME280;69922;45.656;25.586;2024-01-15T04:22:23;94141.46;;;-4.55;71.78
80568;BME280;69922;45.656;25.586;2024-01-15T04:23:29;94142.15;;;-4.57;71.65
80568;BME280;69922;45.656;25.586;2024-01-15T04:24:35;94145.65;;;-4.60;71.76
80568;BME280;69922;45.656;25.586;2024-01-15T04:25:42;94148.29;;;-4.62;71.77
80568;BME280;69922;45.656;25.586;2024-01-15T04:26:49;94144.96;;;-4.65;71.87
80568;BME280;69922;45.656;25.586;2024-01-15T04:27:56;94142.23;;;-4.68;71.93
80568;BME280;69922;45.656;25.586;2024-01-15T04:29:02;94146.04;;;-4.70;72.01
80568;BME280;69922;45.656;25.586;2024-01-15T04:30:10;94150.92;;;-4.74;72.37
80568;BME280;69922;45.656;25.586;2024-01-15T04:31:24;94147.79;;;-4.77;72.24
80568;BME280;69922;45.656;25.586;2024-01-15T04:32:33;94145.70;;;-4.80;72.37
80568;BME280;69922;45.656;25.586;2024-01-15T04:33:40;94141.91;;;-4.82;72.43
80568;BME280;69922;45.656;25.586;2024-01-15T04:34:46;94144.18;;;-4.84;72.54
80568;BME280;69922;45.656;25.586;2024-01-15T04:35:53;94143.04;;;-4.86;72.38
80568;BME280;69922;45.656;25.586;2024-01-15T04:37:00;94145.14;;;-4.88;72.69
80568;BME280;69922;45.656;25.586;2024-01-15T04:38:06;94144.19;;;-4.89;72.80
80568;BME280;69922;45.656;25.586;2024-01-15T04:39:13;94142.09;;;-4.92;72.64
80568;BME280;69922;45.656;25.586;2024-01-15T04:40:20;94139.95;;;-4.94;72.54
80568;BME280;69922;45.656;25.586;2024-01-15T04:41:26;94142.05;;;-4.96;72.73
80568;BME280;69922;45.656;25.586;2024-01-15T04:42:33;94147.48;;;-4.97;72.81
80568;BME280;69922;45.656;25.586;2024-01-15T04:43:40;94150.13;;;-4.98;72.69
80568;BME280;69922;45.656;25.586;2024-01-15T04:44:46;94150.59;;;-4.99;72.90
80568;BME280;69922;45.656;25.586;2024-01-15T04:45:53;94145.14;;;-5.01;72.86
80568;BME280;69922;45.656;25.586;2024-01-15T04:47:00;94142.89;;;-5.03;73.00
80568;BME280;69922;45.656;25.586;2024-01-15T04:48:07;94146.54;;;-5.05;72.99
80568;BME280;69922;45.656;25.586;2024-01-15T04:49:14;94145.99;;;-5.07;73.05
80568;BME280;69922;45.656;25.586;2024-01-15T04:50:20;94145.77;;;-5.09;73.09
80568;BME280;69922;45.656;25.586;2024-01-15T04:51:27;94145.01;;;-5.10;73.16
80568;BME280;69922;45.656;25.586;2024-01-15T04:52:34;94151.27;;;-5.12;73.20
80568;BME280;69922;45.656;25.586;2024-01-15T04:53:41;94152.20;;;-5.15;73.29
80568;BME280;69922;45.656;25.586;2024-01-15T04:54:47;94146.31;;;-5.18;73.33
80568;BME280;69922;45.656;25.586;2024-01-15T04:55:54;94145.87;;;-5.21;73.34
80568;BME280;69922;45.656;25.586;2024-01-15T04:57:01;94146.09;;;-5.24;73.25
80568;BME280;69922;45.656;25.586;2024-01-15T04:58:08;94146.23;;;-5.27;73.49
80568;BME280;69922;45.656;25.586;2024-01-15T04:59:15;94145.56;;;-5.29;73.36
80568;BME280;69922;45.656;25.586;2024-01-15T05:00:22;94151.48;;;-5.33;73.40
80568;BME280;69922;45.656;25.586;2024-01-15T05:01:32;94150.33;;;-5.37;73.53
80568;BME280;69922;45.656;25.586;2024-01-15T05:02:39;94150.66;;;-5.41;73.51
80568;BME280;69922;45.656;25.586;2024-01-15T05:03:45;94151.46;;;-5.45;73.53
80568;BME280;69922;45.656;25.586;2024-01-15T05:04:52;94147.29;;;-5.48;73.68
80568;BME280;69922;45.656;25.586;2024-01-15T05:05:59;94144.00;;;-5.52;73.68
80568;BME280;69922;45.656;25.586;2024-01-15T05:07:06;94139.45;;;-5.54;73.67
80568;BME280;69922;45.656;25.586;2024-01-15T05:08:12;94138.77;;;-5.57;73.76
80568;BME280;69922;45.656;25.586;2024-01-15T05:09:20;94140.67;;;-5.59;73.86
80568;BME280;69922;45.656;25.586;2024-01-15T05:10:26;94142.27;;;-5.60;73.92
80568;BME280;69922;45.656;25.586;2024-01-15T05:11:33;94148.70;;;-5.60;74.06
80568;BME280;69922;45.656;25.586;2024-01-15T05:12:39;94142.04;;;-5.61;74.10
80568;BME280;69922;45.656;25.586;2024-01-15T05:13:46;94146.75;;;-5.62;74.20
80568;BME280;69922;45.656;25.586;2024-01-15T05:14:52;94149.45;;;-5.65;74.27
80568;BME280;69922;45.656;25.586;2024-01-15T05:15:59;94153.30;;;-5.66;74.36
80568;BME280;69922;45.656;25.586;2024-01-15T05:17:06;94154.34;;;-5.68;74.23
80568;BME280;69922;45.656;25.586;2024-01-15T05:18:17;94152.03;;;-5.70;74.13
80568;BME280;69922;45.656;25.586;2024-01-15T05:19:24;94148.62;;;-5.72;74.28
80568;BME280;69922;45.656;25.586;2024-01-15T05:20:31;94147.41;;;-5.74;74.40
80568;BME280;69922;45.656;25.586;2024-01-15T05:21:37;94145.11;;;-5.76;74.45
80568;BME280;69922;45.656;25.586;2024-01-15T05:22:44;94147.49;;;-5.76;74.53
80568;BME280;69922;45.656;25.586;2024-01-15T05:23:51;94148.34;;;-5.77;74.47
80568;BME280;69922;45.656;25.586;2024-01-15T05:24:57;94142.84;;;-5.78;74.52
80568;BME280;69922;45.656;25.586;2024-01-15T05:26:05;94135.27;;;-5.80;74.66
80568;BME280;69922;45.656;25.586;2024-01-15T05:27:11;94138.52;;;-5.80;74.83
80568;BME280;69922;45.656;25.586;2024-01-15T05:28:18;94134.16;;;-5.80;74.86
80568;BME280;69922;45.656;25.586;2024-01-15T05:29:24;94139.20;;;-5.81;74.91
80568;BME280;69922;45.656;25.586;2024-01-15T05:30:31;94136.38;;;-5.82;74.84
80568;BME280;69922;45.656;25.586;2024-01-15T05:31:38;94138.09;;;-5.82;74.87
80568;BME280;69922;45.656;25.586;2024-01-15T05:32:45;94138.42;;;-5.82;75.10
80568;BME280;69922;45.656;25.586;2024-01-15T05:33:52;94134.52;;;-5.82;75.42
80568;BME280;69922;45.656;25.586;2024-01-15T05:35:00;94134.73;;;-5.83;75.43
80568;BME280;69922;45.656;25.586;2024-01-15T05:36:07;94134.67;;;-5.81;75.36
80568;BME280;69922;45.656;25.586;2024-01-15T05:37:14;94131.85;;;-5.81;75.44
80568;BME280;69922;45.656;25.586;2024-01-15T05:38:20;94131.22;;;-5.81;75.52
80568;BME280;69922;45.656;25.586;2024-01-15T05:39:26;94126.08;;;-5.81;75.53
80568;BME280;69922;45.656;25.586;2024-01-15T05:40:33;94130.64;;;-5.80;75.47
80568;BME280;69922;45.656;25.586;2024-01-15T05:41:40;94128.99;;;-5.81;75.49
80568;BME280;69922;45.656;25.586;2024-01-15T05:42:46;94140.02;;;-5.80;75.59
80568;BME280;69922;45.656;25.586;2024-01-15T05:43:53;94139.52;;;-5.81;75.55
80568;BME280;69922;45.656;25.586;2024-01-15T05:45:00;94144.31;;;-5.81;75.54
80568;BME280;69922;45.656;25.586;2024-01-15T05:46:08;94138.46;;;-5.80;75.48
80568;BME280;69922;45.656;25.586;2024-01-15T05:47:15;94139.85;;;-5.80;75.53
80568;BME280;69922;45.656;25.586;2024-01-15T05:48:21;94145.85;;;-5.80;75.61
80568;BME280;69922;45.656;25.586;2024-01-15T05:49:29;94142.39;;;-5.81;75.55